createdAt,value
2023-02-15T00:00:25.447Z,128.53
2023-02-15T00:03:00.258Z,209.73
2023-02-15T00:05:30.392Z,109.97
2023-02-15T00:07:59.776Z,218.27
2023-02-15T00:10:29.218Z,164.10
2023-02-15T00:12:58.627Z,166.73
2023-02-15T00:15:28.083Z,136.37
2023-02-15T00:18:00.590Z,159.40
2023-02-15T00:20:30.023Z,110.27
2023-02-15T00:22:59.436Z,179.13
2023-02-15T00:25:28.896Z,135.67
2023-02-15T00:27:58.322Z,145.67
2023-02-15T00:30:27.837Z,300.67
2023-02-15T00:32:59.969Z,170.07
2023-02-15T00:35:29.403Z,269.70
2023-02-15T00:37:59.873Z,162.13
2023-02-15T00:40:29.336Z,129.63
2023-02-15T00:42:59.660Z,309.97
2023-02-15T00:45:29.046Z,265.90
2023-02-15T00:48:01.023Z,149.33
2023-02-15T00:50:30.615Z,173.57
2023-02-15T00:53:00.047Z,149.50
2023-02-15T00:55:29.597Z,181.90
2023-02-15T00:57:59.009Z,297.07
2023-02-15T01:00:28.508Z,264.33
2023-02-15T01:02:57.883Z,141.37
2023-02-15T01:05:30.643Z,179.63
2023-02-15T01:08:00.107Z,202.17
2023-02-15T01:10:30.631Z,169.77
2023-02-15T01:13:00.254Z,135.90
2023-02-15T01:15:29.713Z,176.03
2023-02-15T01:17:59.331Z,188.33
2023-02-15T01:20:32.698Z,135.87
2023-02-15T01:23:02.126Z,129.40
2023-02-15T01:25:31.529Z,214.73
2023-02-15T01:28:01.006Z,128.30
2023-02-15T01:30:30.702Z,146.00
2023-02-15T01:33:01.776Z,108.47
2023-02-15T01:35:33.820Z,137.90
2023-02-15T01:38:03.252Z,110.20
2023-02-15T01:40:32.777Z,139.53
2023-02-15T01:43:02.155Z,358.70
2023-02-15T01:45:33.406Z,221.33
2023-02-15T01:48:06.011Z,146.87
2023-02-15T01:50:40.442Z,199.17
2023-02-15T01:53:12.362Z,98.50
2023-02-15T01:55:43.895Z,120.67
2023-02-15T01:58:13.451Z,255.37
2023-02-15T02:00:42.829Z,154.87
2023-02-15T02:03:12.344Z,137.60
2023-02-15T02:05:44.775Z,332.03
2023-02-15T02:08:14.603Z,190.47
2023-02-15T02:10:44.100Z,143.63
2023-02-15T02:13:13.662Z,131.40
2023-02-15T02:15:47.288Z,446.57
2023-02-15T02:18:25.514Z,222.83
2023-02-15T02:21:27.430Z,141.10
2023-02-15T02:24:10.531Z,157.57
2023-02-15T02:27:01.651Z,137.77
2023-02-15T02:29:44.505Z,108.53
2023-02-15T02:32:42.955Z,125.97
2023-02-15T02:35:20.068Z,138.53
2023-02-15T02:37:54.037Z,110.80
2023-02-15T02:40:28.638Z,154.33
2023-02-15T02:43:01.720Z,116.50
2023-02-15T02:45:35.886Z,127.13
2023-02-15T02:48:08.247Z,121.77
2023-02-15T02:50:43.137Z,119.70
2023-02-15T02:53:13.313Z,130.03
2023-02-15T02:55:45.607Z,248.77
2023-02-15T02:58:18.961Z,155.27
2023-02-15T03:00:51.379Z,162.70
2023-02-15T03:03:25.054Z,120.13
2023-02-15T03:05:59.544Z,137.40
2023-02-15T03:08:33.889Z,108.67
2023-02-15T03:11:04.606Z,121.77
2023-02-15T03:13:34.142Z,181.83
2023-02-15T03:16:17.075Z,199.83
2023-02-15T03:18:53.825Z,129.77
2023-02-15T03:21:29.764Z,109.33
2023-02-15T03:24:04.364Z,165.40
2023-02-15T03:26:34.359Z,157.90
2023-02-15T03:29:04.137Z,201.13
2023-02-15T03:31:36.509Z,145.67
2023-02-15T03:34:08.556Z,196.60
2023-02-15T03:36:45.528Z,138.73
2023-02-15T03:39:21.141Z,168.10
2023-02-15T03:41:56.749Z,134.20
2023-02-15T03:44:31.708Z,124.87
2023-02-15T03:47:06.158Z,143.87
2023-02-15T03:49:40.898Z,148.87
2023-02-15T03:52:14.889Z,143.60
2023-02-15T03:54:47.430Z,106.10
2023-02-15T03:57:35.225Z,140.20
2023-02-15T04:00:19.168Z,104.17
2023-02-15T04:02:56.688Z,162.67
2023-02-15T04:05:26.422Z,221.67
2023-02-15T04:07:58.409Z,211.03
2023-02-15T04:10:40.324Z,85.20
2023-02-15T04:13:09.796Z,135.03
2023-02-15T04:15:51.701Z,108.87
2023-02-15T04:18:21.149Z,103.93
2023-02-15T04:21:03.372Z,130.83
2023-02-15T04:23:48.673Z,191.43
2023-02-15T04:26:18.317Z,114.43
2023-02-15T04:28:47.735Z,101.53
2023-02-15T04:31:17.253Z,199.90
2023-02-15T04:33:46.767Z,91.20
2023-02-15T04:36:16.286Z,135.40
2023-02-15T04:38:48.343Z,122.03
2023-02-15T04:41:17.716Z,84.07
2023-02-15T04:43:47.131Z,116.93
2023-02-15T04:46:16.513Z,94.07
2023-02-15T04:48:45.901Z,95.37
2023-02-15T04:51:15.372Z,83.47
2023-02-15T04:53:44.769Z,95.30
2023-02-15T04:56:16.826Z,94.27
2023-02-15T04:58:46.204Z,113.17
2023-02-15T05:01:15.830Z,96.93
2023-02-15T05:03:45.297Z,89.17
2023-02-15T05:06:14.773Z,91.67
2023-02-15T05:08:44.213Z,118.17
2023-02-15T05:11:16.170Z,86.87
2023-02-15T05:13:45.572Z,95.23
2023-02-15T05:16:15.005Z,84.83
2023-02-15T05:18:44.430Z,94.53
2023-02-15T05:21:14.603Z,84.63
2023-02-15T05:23:44.054Z,118.20
2023-02-15T05:26:29.651Z,109.73
2023-02-15T05:28:59.033Z,101.40
2023-02-15T05:31:28.995Z,94.30
2023-02-15T05:33:58.589Z,106.63
2023-02-15T05:36:29.224Z,117.17
2023-02-15T05:38:58.682Z,86.47
2023-02-15T05:41:30.730Z,90.93
2023-02-15T05:44:00.139Z,143.80
2023-02-15T05:46:29.611Z,87.63
2023-02-15T05:48:59.086Z,88.30
2023-02-15T05:51:28.577Z,74.07
2023-02-15T05:53:58.024Z,118.77
2023-02-15T05:56:30.127Z,99.13
2023-02-15T05:58:59.502Z,117.77
2023-02-15T06:01:28.950Z,118.43
2023-02-15T06:03:58.432Z,96.27
2023-02-15T06:06:27.840Z,143.97
2023-02-15T06:08:57.244Z,138.37
2023-02-15T06:11:26.607Z,139.10
2023-02-15T06:13:58.594Z,164.20
2023-02-15T06:16:27.991Z,78.40
2023-02-15T06:18:57.540Z,109.73
2023-02-15T06:21:27.031Z,83.40
2023-02-15T06:23:56.427Z,112.60
2023-02-15T06:26:26.044Z,154.00
2023-02-15T06:28:58.069Z,108.10
2023-02-15T06:31:27.569Z,98.60
2023-02-15T06:34:01.842Z,116.13
2023-02-15T06:36:31.581Z,93.57
2023-02-15T06:39:01.373Z,94.93
2023-02-15T06:41:30.861Z,151.20
2023-02-15T06:44:03.244Z,120.33
2023-02-15T06:46:32.662Z,107.90
2023-02-15T06:49:02.061Z,102.57
2023-02-15T06:51:31.436Z,77.97
2023-02-15T06:54:00.890Z,132.33
2023-02-15T06:56:30.387Z,103.37
2023-02-15T06:58:59.904Z,138.73
2023-02-15T07:01:32.316Z,106.80
2023-02-15T07:04:01.745Z,118.17
2023-02-15T07:06:34.780Z,157.47
2023-02-15T07:09:05.173Z,118.50
2023-02-15T07:11:55.909Z,103.73
2023-02-15T07:14:27.158Z,81.80
2023-02-15T07:17:00.681Z,114.80
2023-02-15T07:19:30.219Z,83.77
2023-02-15T07:22:01.587Z,105.43
2023-02-15T07:24:31.036Z,88.33
2023-02-15T07:27:00.642Z,83.70
2023-02-15T07:29:30.328Z,101.23
2023-02-15T07:32:02.361Z,76.60
2023-02-15T07:34:31.883Z,113.00
2023-02-15T07:37:01.607Z,160.73
2023-02-15T07:39:31.011Z,71.17
2023-02-15T07:42:00.692Z,82.47
2023-02-15T07:44:30.074Z,115.43
2023-02-15T07:47:02.078Z,80.73
2023-02-15T07:49:31.711Z,133.73
2023-02-15T07:52:01.189Z,112.90
2023-02-15T07:54:30.624Z,89.67
2023-02-15T07:57:00.092Z,77.30
2023-02-15T07:59:29.578Z,74.83
2023-02-15T08:01:59.349Z,117.80
2023-02-15T08:04:32.185Z,73.67
2023-02-15T08:07:01.569Z,74.47
2023-02-15T08:09:30.989Z,119.47
2023-02-15T08:12:00.353Z,81.90
2023-02-15T08:14:31.303Z,77.53
2023-02-15T08:17:06.000Z,94.23
2023-02-15T08:19:38.300Z,71.37
2023-02-15T08:22:09.339Z,126.57
2023-02-15T08:24:40.341Z,76.93
2023-02-15T08:27:11.333Z,108.60
2023-02-15T08:29:43.187Z,64.97
2023-02-15T08:32:14.049Z,69.63
2023-02-15T08:34:46.358Z,83.17
2023-02-15T08:37:15.780Z,71.83
2023-02-15T08:39:46.964Z,109.33
2023-02-15T08:42:16.399Z,84.47
2023-02-15T08:44:45.859Z,80.77
2023-02-15T08:47:15.270Z,101.33
2023-02-15T08:49:47.234Z,137.87
2023-02-15T08:52:16.854Z,106.70
2023-02-15T08:54:46.317Z,78.00
2023-02-15T08:57:15.759Z,75.20
2023-02-15T08:59:45.220Z,96.13
2023-02-15T09:02:14.789Z,77.47
2023-02-15T09:04:46.801Z,72.17
2023-02-15T09:07:16.234Z,118.13
2023-02-15T09:09:46.436Z,70.27
2023-02-15T09:12:15.876Z,71.30
2023-02-15T09:14:45.304Z,71.63
2023-02-15T09:17:16.097Z,97.33
2023-02-15T09:19:48.179Z,84.77
2023-02-15T09:22:17.608Z,172.57
2023-02-15T09:24:47.164Z,71.90
2023-02-15T09:27:16.684Z,122.30
2023-02-15T09:29:46.153Z,83.83
2023-02-15T09:32:18.600Z,94.00
2023-02-15T09:34:50.631Z,129.13
2023-02-15T09:37:20.054Z,125.93
2023-02-15T09:39:50.608Z,86.77
2023-02-15T09:42:34.558Z,80.90
2023-02-15T09:45:23.786Z,89.67
2023-02-15T09:48:11.194Z,237.30
2023-02-15T09:50:54.380Z,122.43
2023-02-15T09:53:33.763Z,149.13
2023-02-15T09:56:07.533Z,100.00
2023-02-15T09:58:44.454Z,85.43
2023-02-15T10:01:20.512Z,112.60
2023-02-15T10:04:00.901Z,94.30
2023-02-15T10:06:43.081Z,92.30
2023-02-15T10:09:31.874Z,156.93
2023-02-15T10:12:12.735Z,95.03
2023-02-15T10:15:00.166Z,119.00
2023-02-15T10:17:41.083Z,111.10
2023-02-15T10:20:19.052Z,126.53
2023-02-15T10:23:05.064Z,143.47
2023-02-15T10:25:41.596Z,76.93
2023-02-15T10:28:17.387Z,91.50
2023-02-15T10:30:51.547Z,93.80
2023-02-15T10:33:35.138Z,86.20
2023-02-15T10:36:13.549Z,96.13
2023-02-15T10:38:46.848Z,101.37
2023-02-15T10:41:26.936Z,94.07
2023-02-15T10:44:07.727Z,91.33
2023-02-15T10:46:55.219Z,102.50
2023-02-15T10:49:50.372Z,107.53
2023-02-15T10:52:31.568Z,96.40
2023-02-15T10:55:10.686Z,83.40
2023-02-15T10:57:48.951Z,91.53
2023-02-15T11:00:23.412Z,88.70
2023-02-15T11:03:06.662Z,86.23
2023-02-15T11:05:43.450Z,93.97
2023-02-15T11:08:14.148Z,84.67
2023-02-15T11:10:48.467Z,82.90
2023-02-15T11:13:20.702Z,93.80
2023-02-15T11:15:53.310Z,83.37
2023-02-15T11:18:27.697Z,97.20
2023-02-15T11:20:59.834Z,94.63
2023-02-15T11:23:30.295Z,101.70
2023-02-15T11:26:05.775Z,90.70
2023-02-15T11:28:38.494Z,89.43
2023-02-15T11:31:17.308Z,94.60
2023-02-15T11:33:50.462Z,93.27
2023-02-15T11:36:23.034Z,91.93
2023-02-15T11:38:56.085Z,87.83
2023-02-15T11:41:32.661Z,83.53
2023-02-15T11:44:04.663Z,95.67
2023-02-15T11:46:34.143Z,99.40
2023-02-15T11:49:04.005Z,97.97
2023-02-15T11:51:33.669Z,94.57
2023-02-15T11:54:03.344Z,96.77
2023-02-15T11:56:36.905Z,87.07
2023-02-15T11:59:10.063Z,93.93
2023-02-15T12:01:41.892Z,95.93
2023-02-15T12:04:17.204Z,85.83
2023-02-15T12:06:49.586Z,94.07
2023-02-15T12:09:23.740Z,91.10
2023-02-15T12:11:55.853Z,90.63
2023-02-15T12:14:25.288Z,90.97
2023-02-15T12:16:57.261Z,82.40
2023-02-15T12:19:33.867Z,83.23
2023-02-15T12:22:05.221Z,82.33
2023-02-15T12:24:36.988Z,88.93
2023-02-15T12:27:15.828Z,88.50
2023-02-15T12:29:46.754Z,83.63
2023-02-15T12:32:21.988Z,89.50
2023-02-15T12:34:51.643Z,89.63
2023-02-15T12:37:23.645Z,86.80
2023-02-15T12:39:58.516Z,73.50
2023-02-15T12:42:33.082Z,72.20
2023-02-15T12:45:04.891Z,78.10
2023-02-15T12:47:35.093Z,74.70
2023-02-15T12:50:18.005Z,71.80
2023-02-15T12:52:48.752Z,73.13
2023-02-15T12:55:24.480Z,63.10
2023-02-15T12:58:09.345Z,59.00
2023-02-15T13:00:38.791Z,63.13
2023-02-15T13:03:08.425Z,63.90
2023-02-15T13:05:42.085Z,65.00
2023-02-15T13:08:15.252Z,62.27
2023-02-15T13:10:46.959Z,67.47
2023-02-15T13:13:24.294Z,61.80
2023-02-15T13:15:55.485Z,56.77
2023-02-15T13:18:32.630Z,62.30
2023-02-15T13:21:07.995Z,63.73
2023-02-15T13:23:37.708Z,60.73
2023-02-15T13:26:09.138Z,59.77
2023-02-15T13:28:43.264Z,63.83
2023-02-15T13:31:17.078Z,59.77
2023-02-15T13:33:49.122Z,70.03
2023-02-15T13:36:24.159Z,63.63
2023-02-15T13:39:03.084Z,59.83
2023-02-15T13:41:36.979Z,52.10
2023-02-15T13:44:21.229Z,69.67
2023-02-15T13:47:03.882Z,69.47
2023-02-15T13:49:43.834Z,56.70
2023-02-15T13:52:23.123Z,59.23
2023-02-15T13:55:10.828Z,60.77
2023-02-15T13:57:51.990Z,59.83
2023-02-15T14:00:27.072Z,60.37
2023-02-15T14:03:10.708Z,65.20
2023-02-15T14:06:09.888Z,59.57
2023-02-15T14:08:49.467Z,64.97
2023-02-15T14:11:24.896Z,54.13
2023-02-15T14:14:18.791Z,67.37
2023-02-15T14:17:06.730Z,53.33
2023-02-15T14:19:39.815Z,58.47
2023-02-15T14:22:15.414Z,54.70
2023-02-15T14:24:47.384Z,55.70
2023-02-15T14:27:25.886Z,58.20
2023-02-15T14:29:57.850Z,65.87
2023-02-15T14:32:34.815Z,69.30
2023-02-15T14:35:05.115Z,61.27
2023-02-15T14:37:49.610Z,75.50
2023-02-15T14:40:39.380Z,74.07
2023-02-15T14:43:13.589Z,78.30
2023-02-15T14:45:46.713Z,70.30
2023-02-15T14:48:26.968Z,68.57
2023-02-15T14:50:56.548Z,67.23
2023-02-15T14:53:43.050Z,66.27
2023-02-15T14:56:25.816Z,61.73
2023-02-15T14:59:22.935Z,56.40
2023-02-15T15:02:02.282Z,58.80
2023-02-15T15:04:38.504Z,55.50
2023-02-15T15:07:16.460Z,57.90
2023-02-15T15:09:47.243Z,63.47
2023-02-15T15:12:32.925Z,56.17
2023-02-15T15:15:02.446Z,58.40
2023-02-15T15:18:00.192Z,56.90
2023-02-15T15:20:50.290Z,97.70
2023-02-15T15:23:43.188Z,98.23
2023-02-15T15:26:30.649Z,153.23
2023-02-15T15:29:02.415Z,140.70
2023-02-15T15:31:47.670Z,71.13
2023-02-15T15:34:24.732Z,79.17
2023-02-15T15:37:14.635Z,62.43
2023-02-15T15:40:19.169Z,62.23
2023-02-15T15:42:54.944Z,90.57
2023-02-15T15:45:45.038Z,66.90
2023-02-15T15:48:43.222Z,72.87
2023-02-15T15:51:16.553Z,68.57
2023-02-15T15:53:51.418Z,58.73
2023-02-15T15:56:23.014Z,75.90
2023-02-15T15:58:55.469Z,67.47
2023-02-15T16:01:32.448Z,70.57
2023-02-15T16:04:03.145Z,54.17
2023-02-15T16:06:37.892Z,61.63
2023-02-15T16:09:21.456Z,48.43
2023-02-15T16:11:52.278Z,52.80
2023-02-15T16:14:28.869Z,56.17
2023-02-15T16:16:59.573Z,60.23
2023-02-15T16:19:31.884Z,50.33
2023-02-15T16:22:02.786Z,43.17
2023-02-15T16:24:59.031Z,48.40
2023-02-15T16:27:49.323Z,55.50
2023-02-15T16:30:25.453Z,45.80
2023-02-15T16:32:57.167Z,46.70
2023-02-15T16:35:27.163Z,43.90
2023-02-15T16:37:56.575Z,48.60
2023-02-15T16:40:58.246Z,52.27
2023-02-15T16:43:30.238Z,50.83
2023-02-15T16:46:07.235Z,56.00
2023-02-15T16:48:39.061Z,57.43
2023-02-15T16:51:08.608Z,82.40
2023-02-15T16:53:38.271Z,61.00
2023-02-15T16:56:10.607Z,52.90
2023-02-15T16:58:43.834Z,79.33
2023-02-15T17:01:15.696Z,47.20
2023-02-15T17:03:46.126Z,52.57
2023-02-15T17:06:24.013Z,84.27
2023-02-15T17:08:53.463Z,80.77
2023-02-15T17:11:26.250Z,57.60
2023-02-15T17:14:19.019Z,51.40
2023-02-15T17:16:50.522Z,52.20
2023-02-15T17:19:23.778Z,52.10
2023-02-15T17:21:55.531Z,76.57
2023-02-15T17:24:34.961Z,61.03
2023-02-15T17:27:14.284Z,53.73
2023-02-15T17:29:44.728Z,55.27
2023-02-15T17:32:20.330Z,61.87
2023-02-15T17:35:05.141Z,53.43
2023-02-15T17:37:46.115Z,54.27
2023-02-15T17:40:24.012Z,48.20
2023-02-15T17:42:56.061Z,48.13
2023-02-15T17:45:26.470Z,51.67
2023-02-15T17:47:58.153Z,50.40
2023-02-15T17:50:29.240Z,57.33
2023-02-15T17:53:01.437Z,53.87
2023-02-15T17:55:43.635Z,51.73
2023-02-15T17:58:17.004Z,49.33
2023-02-15T18:01:01.310Z,54.67
2023-02-15T18:03:52.471Z,54.60
2023-02-15T18:06:34.484Z,54.20
2023-02-15T18:09:16.341Z,46.30
2023-02-15T18:11:48.735Z,46.47
2023-02-15T18:14:20.760Z,46.70
2023-02-15T18:16:50.268Z,47.90
2023-02-15T18:19:24.340Z,51.13
2023-02-15T18:21:57.665Z,53.30
2023-02-15T18:24:28.700Z,63.87
2023-02-15T18:26:58.392Z,55.97
2023-02-15T18:29:30.412Z,56.20
2023-02-15T18:32:00.374Z,61.13
2023-02-15T18:34:32.698Z,54.83
2023-02-15T18:37:03.455Z,62.60
2023-02-15T18:39:37.588Z,64.93
2023-02-15T18:42:07.712Z,60.20
2023-02-15T18:44:39.688Z,134.47
2023-02-15T18:47:09.139Z,128.23
2023-02-15T18:49:38.581Z,106.87
2023-02-15T18:52:08.278Z,74.37
2023-02-15T18:54:37.710Z,60.23
2023-02-15T18:57:07.141Z,62.80
2023-02-15T18:59:39.161Z,56.40
2023-02-15T19:02:14.843Z,86.73
2023-02-15T19:04:44.545Z,73.33
2023-02-15T19:07:19.589Z,70.47
2023-02-15T19:09:51.043Z,76.00
2023-02-15T19:12:20.644Z,50.80
2023-02-15T19:14:53.780Z,50.90
2023-02-15T19:17:24.249Z,57.57
2023-02-15T19:19:54.927Z,61.37
2023-02-15T19:22:28.311Z,55.33
2023-02-15T19:24:59.735Z,51.87
2023-02-15T19:27:31.924Z,54.80
2023-02-15T19:30:05.711Z,53.80
2023-02-15T19:32:35.220Z,50.40
2023-02-15T19:35:05.136Z,57.20
2023-02-15T19:37:37.928Z,53.60
2023-02-15T19:40:08.581Z,58.73
2023-02-15T19:42:37.978Z,58.53
2023-02-15T19:45:16.400Z,70.63
2023-02-15T19:47:48.109Z,54.83
2023-02-15T19:50:18.663Z,57.17
2023-02-15T19:52:49.041Z,65.17
2023-02-15T19:55:27.593Z,54.60
2023-02-15T19:57:58.063Z,52.17
2023-02-15T20:00:31.586Z,53.67
2023-02-15T20:03:01.854Z,56.57
2023-02-15T20:05:34.218Z,52.20
2023-02-15T20:08:04.447Z,58.83
2023-02-15T20:10:34.866Z,51.07
2023-02-15T20:13:04.763Z,50.60
2023-02-15T20:15:37.855Z,54.93
2023-02-15T20:18:07.597Z,57.20
2023-02-15T20:20:42.537Z,63.30
2023-02-15T20:23:20.809Z,62.40
2023-02-15T20:25:50.887Z,53.13
2023-02-15T20:28:21.882Z,62.67
2023-02-15T20:30:54.262Z,62.97
2023-02-15T20:33:24.252Z,53.73
2023-02-15T20:35:54.247Z,60.20
2023-02-15T20:38:26.575Z,60.07
2023-02-15T20:41:09.193Z,62.33
2023-02-15T20:43:38.576Z,65.77
2023-02-15T20:46:10.937Z,62.73
2023-02-15T20:48:40.655Z,57.03
2023-02-15T20:51:14.714Z,61.00
2023-02-15T20:53:44.261Z,62.60
2023-02-15T20:56:18.435Z,55.90
2023-02-15T20:58:47.901Z,60.13
2023-02-15T21:01:20.543Z,62.70
2023-02-15T21:03:50.219Z,60.93
2023-02-15T21:06:20.506Z,56.53
2023-02-15T21:08:49.889Z,58.33
2023-02-15T21:11:21.253Z,56.43
2023-02-15T21:13:51.139Z,54.80
2023-02-15T21:16:23.243Z,54.90
2023-02-15T21:18:52.690Z,58.30
2023-02-15T21:21:25.628Z,56.60
2023-02-15T21:23:55.769Z,49.53
2023-02-15T21:26:25.833Z,54.73
2023-02-15T21:28:56.762Z,51.90
2023-02-15T21:31:29.425Z,56.37
2023-02-15T21:33:58.933Z,55.70
2023-02-15T21:36:28.428Z,54.53
2023-02-15T21:38:57.923Z,54.43
2023-02-15T21:41:40.207Z,56.53
2023-02-15T21:44:30.779Z,55.20
2023-02-15T21:47:15.530Z,49.57
2023-02-15T21:49:44.946Z,54.20
2023-02-15T21:52:12.895Z,55.70
2023-02-15T21:54:43.070Z,62.43
2023-02-15T21:57:16.715Z,60.93
2023-02-15T21:59:47.210Z,56.60
2023-02-15T22:02:30.184Z,57.20
2023-02-15T22:05:00.011Z,60.53
2023-02-15T22:07:29.463Z,62.03
2023-02-15T22:09:58.830Z,58.47
2023-02-15T22:12:28.291Z,65.50
2023-02-15T22:14:57.697Z,54.30
2023-02-15T22:17:30.172Z,59.77
2023-02-15T22:20:00.555Z,54.13
2023-02-15T22:22:30.912Z,58.90
2023-02-15T22:25:00.297Z,57.57
2023-02-15T22:27:31.634Z,53.83
2023-02-15T22:30:01.104Z,57.57
2023-02-15T22:32:33.261Z,51.50
2023-02-15T22:35:02.722Z,48.13
2023-02-15T22:37:35.233Z,55.60
2023-02-15T22:40:04.635Z,51.07
2023-02-15T22:42:34.051Z,56.17
2023-02-15T22:45:03.486Z,52.93
2023-02-15T22:47:35.874Z,56.40
2023-02-15T22:50:05.299Z,55.77
2023-02-15T22:52:34.748Z,54.03
2023-02-15T22:55:04.182Z,54.30
2023-02-15T22:57:34.953Z,49.87
2023-02-15T23:00:04.979Z,58.67
2023-02-15T23:02:36.984Z,55.43
2023-02-15T23:05:06.563Z,52.97
2023-02-15T23:07:36.003Z,52.00
2023-02-15T23:10:05.416Z,57.13
2023-02-15T23:12:56.247Z,55.37
2023-02-15T23:15:25.790Z,48.63
2023-02-15T23:17:57.752Z,52.00
2023-02-15T23:20:28.461Z,57.13
2023-02-15T23:22:57.892Z,57.03
2023-02-15T23:25:28.072Z,56.40
2023-02-15T23:28:00.420Z,62.20
2023-02-15T23:30:30.282Z,57.07
2023-02-15T23:33:02.303Z,56.97
2023-02-15T23:35:31.820Z,53.13
2023-02-15T23:38:01.248Z,57.63
2023-02-15T23:40:58.011Z,49.60
2023-02-15T23:43:27.405Z,55.27
2023-02-15T23:45:56.891Z,47.23
2023-02-15T23:48:33.514Z,53.97
2023-02-15T23:51:03.732Z,55.43
2023-02-15T23:53:33.478Z,52.30
2023-02-15T23:56:03.377Z,48.87
2023-02-15T23:58:40.306Z,49.63
